AAL846 KJFK-CYYZ
Flight info
| Callsign | AAL846 |
|---|---|
| Flight time | 1h 15m |
| Altitude | 36000 |
| Route | NEION Q232 CORDS DCT CFB DCT BUF DCT LOKPU LINNG3 |
| Aircraft | A320/M-SDE3FGHIRWY/LB1 |
Departure
| Time | 2026-05-06 12:13 |
|---|---|
| Airport | John F. Kennedy International Airport (KJFK) |
Arrival
| Time | 2026-05-06 13:29 |
|---|---|
| Airport | Toronto Pearson International Airport (CYYZ) |
| Time | Latitude | Longitude | Altitude | Speed | Heading |
|---|---|---|---|---|---|
| 2026-05-06 11:51 | 40.64664 | -73.79450 | 18 ft | 0 kts | 25° |
| 2026-05-06 11:52 | 40.64663 | -73.79450 | 18 ft | 0 kts | 25° |
| 2026-05-06 11:57 | 40.64659 | -73.79453 | 19 ft | 4 kts | 24° |
| 2026-05-06 11:57 | 40.64633 | -73.79464 | 19 ft | 4 kts | 0° |
| 2026-05-06 11:57 | 40.64614 | -73.79457 | 19 ft | 4 kts | 290° |
| 2026-05-06 11:58 | 40.64612 | -73.79449 | 20 ft | 3 kts | 265° |
| 2026-05-06 12:00 | 40.64612 | -73.79448 | 19 ft | 0 kts | 265° |
| 2026-05-06 12:03 | 40.64611 | -73.79462 | 19 ft | 6 kts | 265° |
| 2026-05-06 12:03 | 40.64593 | -73.79566 | 20 ft | 17 kts | 247° |
| 2026-05-06 12:03 | 40.64466 | -73.79595 | 20 ft | 23 kts | 175° |
| 2026-05-06 12:03 | 40.64285 | -73.79593 | 20 ft | 29 kts | 185° |
| 2026-05-06 12:04 | 40.64120 | -73.79610 | 21 ft | 15 kts | 177° |
| 2026-05-06 12:04 | 40.64003 | -73.79535 | 21 ft | 24 kts | 144° |
| 2026-05-06 12:04 | 40.63901 | -73.79341 | 20 ft | 27 kts | 117° |
| 2026-05-06 12:04 | 40.63810 | -73.79119 | 21 ft | 28 kts | 120° |
| 2026-05-06 12:05 | 40.63708 | -73.78899 | 23 ft | 28 kts | 121° |
| 2026-05-06 12:05 | 40.63604 | -73.78675 | 22 ft | 29 kts | 120° |
| 2026-05-06 12:05 | 40.63499 | -73.78446 | 22 ft | 30 kts | 120° |
| 2026-05-06 12:05 | 40.63394 | -73.78208 | 22 ft | 30 kts | 121° |
| 2026-05-06 12:06 | 40.63334 | -73.77945 | 21 ft | 31 kts | 81° |
| 2026-05-06 12:06 | 40.63473 | -73.77739 | 21 ft | 32 kts | 31° |
| 2026-05-06 12:06 | 40.63668 | -73.77582 | 20 ft | 32 kts | 31° |
| 2026-05-06 12:06 | 40.63865 | -73.77429 | 20 ft | 33 kts | 30° |
| 2026-05-06 12:07 | 40.64062 | -73.77275 | 21 ft | 33 kts | 31° |
| 2026-05-06 12:07 | 40.64262 | -73.77118 | 21 ft | 33 kts | 31° |
| 2026-05-06 12:07 | 40.64433 | -73.76999 | 20 ft | 25 kts | 13° |
| 2026-05-06 12:07 | 40.64525 | -73.76984 | 20 ft | 3 kts | 13° |
| 2026-05-06 12:08 | 40.64545 | -73.76977 | 20 ft | 3 kts | 18° |
| 2026-05-06 12:08 | 40.64549 | -73.76975 | 22 ft | 1 kts | 18° |
| 2026-05-06 12:08 | 40.64558 | -73.76971 | 21 ft | 2 kts | 18° |
| 2026-05-06 12:09 | 40.64582 | -73.76959 | 20 ft | 4 kts | 33° |
| 2026-05-06 12:09 | 40.64607 | -73.76929 | 20 ft | 5 kts | 45° |
| 2026-05-06 12:09 | 40.64634 | -73.76896 | 20 ft | 7 kts | 38° |
| 2026-05-06 12:09 | 40.64690 | -73.76848 | 20 ft | 12 kts | 33° |
| 2026-05-06 12:10 | 40.64777 | -73.76781 | 21 ft | 16 kts | 30° |
| 2026-05-06 12:10 | 40.64884 | -73.76695 | 22 ft | 20 kts | 31° |
| 2026-05-06 12:10 | 40.65010 | -73.76592 | 21 ft | 9 kts | 44° |
| 2026-05-06 12:10 | 40.64990 | -73.76506 | 22 ft | 4 kts | 126° |
| 2026-05-06 12:11 | 40.64989 | -73.76504 | 22 ft | 0 kts | 126° |
| 2026-05-06 12:11 | 40.64945 | -73.76435 | 24 ft | 12 kts | 152° |
| 2026-05-06 12:12 | 40.64908 | -73.76446 | 22 ft | 0 kts | 211° |
| 2026-05-06 12:12 | 40.64907 | -73.76447 | 22 ft | 2 kts | 211° |
| 2026-05-06 12:13 | 40.64686 | -73.76619 | 20 ft | 75 kts | 211° |
| 2026-05-06 12:13 | 40.64070 | -73.77102 | 22 ft | 132 kts | 211° |
| 2026-05-06 12:13 | 40.63144 | -73.77821 | 182 ft | 164 kts | 212° |
| 2026-05-06 12:13 | 40.62259 | -73.78560 | 1248 ft | 142 kts | 213° |
| 2026-05-06 12:14 | 40.61447 | -73.79290 | 2006 ft | 145 kts | 226° |
| 2026-05-06 12:14 | 40.60916 | -73.80525 | 2417 ft | 172 kts | 250° |
| 2026-05-06 12:14 | 40.60972 | -73.82221 | 2868 ft | 206 kts | 281° |
| 2026-05-06 12:14 | 40.61912 | -73.83855 | 3411 ft | 240 kts | 308° |
| 2026-05-06 12:15 | 40.63203 | -73.85404 | 3955 ft | 261 kts | 309° |
| 2026-05-06 12:15 | 40.64570 | -73.87038 | 4769 ft | 270 kts | 310° |
| 2026-05-06 12:15 | 40.65976 | -73.88715 | 5638 ft | 275 kts | 310° |
| 2026-05-06 12:15 | 40.67402 | -73.90416 | 6557 ft | 278 kts | 311° |
| 2026-05-06 12:16 | 40.68845 | -73.92138 | 7439 ft | 281 kts | 310° |
| 2026-05-06 12:16 | 40.70299 | -73.93885 | 8324 ft | 285 kts | 309° |
| 2026-05-06 12:16 | 40.71765 | -73.95653 | 9203 ft | 288 kts | 309° |
| 2026-05-06 12:16 | 40.73260 | -73.97457 | 10062 ft | 292 kts | 309° |
| 2026-05-06 12:17 | 40.74812 | -73.99346 | 10427 ft | 314 kts | 309° |
| 2026-05-06 12:17 | 40.76472 | -74.01384 | 10702 ft | 338 kts | 310° |
| 2026-05-06 12:17 | 40.78232 | -74.03541 | 10884 ft | 361 kts | 310° |
| 2026-05-06 12:17 | 40.80107 | -74.05817 | 11399 ft | 371 kts | 311° |
| 2026-05-06 12:18 | 40.82023 | -74.08124 | 12080 ft | 375 kts | 311° |
| 2026-05-06 12:18 | 40.83987 | -74.10486 | 12819 ft | 378 kts | 311° |
| 2026-05-06 12:18 | 40.85910 | -74.12809 | 13539 ft | 381 kts | 311° |
| 2026-05-06 12:18 | 40.87878 | -74.15186 | 14179 ft | 384 kts | 311° |
| 2026-05-06 12:19 | 40.89851 | -74.17577 | 14828 ft | 386 kts | 311° |
| 2026-05-06 12:19 | 40.91832 | -74.19989 | 15452 ft | 389 kts | 310° |
| 2026-05-06 12:19 | 40.93828 | -74.22437 | 16069 ft | 392 kts | 310° |
| 2026-05-06 12:19 | 40.95834 | -74.24905 | 16682 ft | 395 kts | 310° |
| 2026-05-06 12:20 | 40.97853 | -74.27393 | 17307 ft | 398 kts | 310° |
| 2026-05-06 12:20 | 40.99891 | -74.29894 | 17906 ft | 401 kts | 311° |
| 2026-05-06 12:20 | 41.01952 | -74.32411 | 18465 ft | 404 kts | 311° |
| 2026-05-06 12:20 | 41.04029 | -74.34948 | 18971 ft | 407 kts | 311° |
| 2026-05-06 12:21 | 41.06112 | -74.37496 | 19475 ft | 408 kts | 311° |
| 2026-05-06 12:21 | 41.08196 | -74.40040 | 20007 ft | 409 kts | 311° |
| 2026-05-06 12:21 | 41.10287 | -74.42603 | 20529 ft | 410 kts | 311° |
| 2026-05-06 12:21 | 41.12379 | -74.45179 | 21033 ft | 411 kts | 310° |
| 2026-05-06 12:22 | 41.14476 | -74.47770 | 21547 ft | 412 kts | 310° |
| 2026-05-06 12:22 | 41.16579 | -74.50368 | 22012 ft | 414 kts | 310° |
| 2026-05-06 12:22 | 41.18690 | -74.52976 | 22488 ft | 415 kts | 310° |
| 2026-05-06 12:22 | 41.20811 | -74.55597 | 22959 ft | 417 kts | 310° |
| 2026-05-06 12:23 | 41.22893 | -74.58258 | 23396 ft | 415 kts | 306° |
| 2026-05-06 12:23 | 41.24741 | -74.61187 | 23747 ft | 413 kts | 303° |
| 2026-05-06 12:23 | 41.26565 | -74.64150 | 24099 ft | 415 kts | 303° |
| 2026-05-06 12:23 | 41.28391 | -74.67128 | 24444 ft | 415 kts | 303° |
| 2026-05-06 12:24 | 41.30217 | -74.70114 | 24764 ft | 417 kts | 303° |
| 2026-05-06 12:24 | 41.32054 | -74.73115 | 25102 ft | 419 kts | 303° |
| 2026-05-06 12:24 | 41.33895 | -74.76118 | 25453 ft | 420 kts | 303° |
| 2026-05-06 12:24 | 41.35744 | -74.79129 | 25758 ft | 421 kts | 303° |
| 2026-05-06 12:25 | 41.37605 | -74.82159 | 26073 ft | 423 kts | 303° |
| 2026-05-06 12:25 | 41.39468 | -74.85194 | 26358 ft | 424 kts | 303° |
| 2026-05-06 12:25 | 41.41333 | -74.88241 | 26668 ft | 424 kts | 303° |
| 2026-05-06 12:25 | 41.43200 | -74.91303 | 26962 ft | 425 kts | 303° |
| 2026-05-06 12:26 | 41.45063 | -74.94364 | 27210 ft | 426 kts | 302° |
| 2026-05-06 12:26 | 41.46929 | -74.97436 | 27446 ft | 427 kts | 303° |
| 2026-05-06 12:26 | 41.48803 | -75.00519 | 27683 ft | 428 kts | 303° |
| 2026-05-06 12:26 | 41.50683 | -75.03606 | 27938 ft | 428 kts | 303° |
| 2026-05-06 12:27 | 41.52534 | -75.06640 | 28259 ft | 426 kts | 302° |
| 2026-05-06 12:27 | 41.54396 | -75.09705 | 28547 ft | 425 kts | 302° |
| 2026-05-06 12:27 | 41.56251 | -75.12772 | 28849 ft | 424 kts | 302° |
| 2026-05-06 12:27 | 41.58104 | -75.15841 | 29176 ft | 423 kts | 302° |
| 2026-05-06 12:28 | 41.59941 | -75.18900 | 29510 ft | 421 kts | 302° |
| 2026-05-06 12:28 | 41.61766 | -75.21957 | 29838 ft | 420 kts | 302° |
| 2026-05-06 12:28 | 41.63579 | -75.25003 | 30130 ft | 418 kts | 302° |
| 2026-05-06 12:28 | 41.65387 | -75.28044 | 30451 ft | 417 kts | 302° |
| 2026-05-06 12:29 | 41.67189 | -75.31070 | 30801 ft | 415 kts | 301° |
| 2026-05-06 12:29 | 41.68979 | -75.34076 | 31130 ft | 412 kts | 301° |
| 2026-05-06 12:29 | 41.70763 | -75.37072 | 31434 ft | 411 kts | 301° |
| 2026-05-06 12:29 | 41.72537 | -75.40055 | 31759 ft | 409 kts | 301° |
| 2026-05-06 12:30 | 41.74302 | -75.43022 | 32068 ft | 407 kts | 301° |
| 2026-05-06 12:30 | 41.76075 | -75.46006 | 32290 ft | 409 kts | 301° |
| 2026-05-06 12:30 | 41.77841 | -75.48980 | 32519 ft | 409 kts | 301° |
| 2026-05-06 12:30 | 41.79613 | -75.51968 | 32800 ft | 408 kts | 300° |
| 2026-05-06 12:31 | 41.81371 | -75.54933 | 33109 ft | 407 kts | 300° |
| 2026-05-06 12:31 | 41.83130 | -75.57905 | 33402 ft | 405 kts | 300° |
| 2026-05-06 12:31 | 41.84884 | -75.60875 | 33706 ft | 404 kts | 300° |
| 2026-05-06 12:31 | 41.86620 | -75.63820 | 33985 ft | 402 kts | 300° |
| 2026-05-06 12:32 | 41.86873 | -75.64251 | 34022 ft | 402 kts | 300° |
| 2026-05-06 12:45 | 41.88838 | -75.67615 | 34395 ft | 399 kts | 300° |
| 2026-05-06 12:45 | 41.92234 | -75.73377 | 35128 ft | 393 kts | 300° |
| 2026-05-06 12:46 | 41.93920 | -75.76232 | 35434 ft | 389 kts | 300° |
| 2026-05-06 12:46 | 41.95598 | -75.79080 | 35735 ft | 386 kts | 300° |
| 2026-05-06 12:46 | 41.97261 | -75.81916 | 35803 ft | 385 kts | 300° |
| 2026-05-06 12:47 | 42.00570 | -75.87577 | 35824 ft | 385 kts | 300° |
| 2026-05-06 12:47 | 42.03879 | -75.93221 | 35804 ft | 384 kts | 300° |
| 2026-05-06 12:48 | 42.07190 | -75.98889 | 35814 ft | 384 kts | 299° |
| 2026-05-06 12:48 | 42.10480 | -76.04559 | 35825 ft | 384 kts | 299° |
| 2026-05-06 12:49 | 42.13771 | -76.10238 | 35823 ft | 385 kts | 299° |
| 2026-05-06 12:49 | 42.16594 | -76.16219 | 35847 ft | 372 kts | 286° |
| 2026-05-06 12:50 | 42.18627 | -76.22582 | 35851 ft | 372 kts | 287° |
| 2026-05-06 12:50 | 42.20687 | -76.29003 | 35853 ft | 373 kts | 286° |
| 2026-05-06 12:51 | 42.22744 | -76.35434 | 35837 ft | 374 kts | 286° |
| 2026-05-06 12:51 | 42.24802 | -76.41886 | 35835 ft | 375 kts | 286° |
| 2026-05-06 12:52 | 42.26864 | -76.48351 | 35836 ft | 375 kts | 286° |
| 2026-05-06 12:52 | 42.28928 | -76.54837 | 35837 ft | 377 kts | 286° |
| 2026-05-06 12:53 | 42.30996 | -76.61357 | 35829 ft | 378 kts | 286° |
| 2026-05-06 12:53 | 42.33063 | -76.67900 | 35835 ft | 379 kts | 285° |
| 2026-05-06 12:54 | 42.35124 | -76.74458 | 35838 ft | 379 kts | 285° |
| 2026-05-06 12:54 | 42.37173 | -76.80978 | 35850 ft | 380 kts | 285° |
| 2026-05-06 12:55 | 42.39214 | -76.87478 | 35867 ft | 380 kts | 285° |
| 2026-05-06 12:55 | 42.41284 | -76.94086 | 35869 ft | 381 kts | 285° |
| 2026-05-06 12:56 | 42.43356 | -77.00715 | 35872 ft | 383 kts | 285° |
| 2026-05-06 12:56 | 42.45430 | -77.07358 | 35871 ft | 383 kts | 285° |
| 2026-05-06 12:57 | 42.47500 | -77.14007 | 35875 ft | 384 kts | 285° |
| 2026-05-06 12:57 | 42.49570 | -77.20686 | 35874 ft | 384 kts | 285° |
| 2026-05-06 12:58 | 42.51628 | -77.27358 | 35911 ft | 384 kts | 284° |
| 2026-05-06 12:58 | 42.53691 | -77.34055 | 35882 ft | 384 kts | 284° |
| 2026-05-06 12:59 | 42.55739 | -77.40713 | 35880 ft | 385 kts | 284° |
| 2026-05-06 12:59 | 42.57792 | -77.47424 | 35880 ft | 386 kts | 284° |
| 2026-05-06 13:00 | 42.59848 | -77.54154 | 35879 ft | 386 kts | 284° |
| 2026-05-06 13:00 | 42.61903 | -77.60884 | 35913 ft | 386 kts | 284° |
| 2026-05-06 13:01 | 42.63968 | -77.67645 | 35906 ft | 387 kts | 284° |
| 2026-05-06 13:01 | 42.66024 | -77.74402 | 35889 ft | 387 kts | 284° |
| 2026-05-06 13:02 | 42.68072 | -77.81159 | 35887 ft | 387 kts | 283° |
| 2026-05-06 13:02 | 42.70119 | -77.87936 | 35899 ft | 387 kts | 283° |
| 2026-05-06 13:03 | 42.72162 | -77.94717 | 35903 ft | 387 kts | 283° |
| 2026-05-06 13:03 | 42.74196 | -78.01495 | 35919 ft | 387 kts | 283° |
| 2026-05-06 13:04 | 42.76230 | -78.08279 | 35918 ft | 387 kts | 283° |
| 2026-05-06 13:04 | 42.78259 | -78.15065 | 35914 ft | 387 kts | 283° |
| 2026-05-06 13:04 | 42.79266 | -78.18445 | 35571 ft | 384 kts | 283° |
| 2026-05-06 13:05 | 42.80271 | -78.21827 | 34706 ft | 388 kts | 283° |
| 2026-05-06 13:05 | 42.81290 | -78.25267 | 33730 ft | 395 kts | 283° |
| 2026-05-06 13:05 | 42.82323 | -78.28776 | 32617 ft | 403 kts | 283° |
| 2026-05-06 13:05 | 42.83372 | -78.32340 | 31620 ft | 408 kts | 283° |
| 2026-05-06 13:06 | 42.84435 | -78.35944 | 30632 ft | 411 kts | 283° |
| 2026-05-06 13:06 | 42.85511 | -78.39576 | 29592 ft | 414 kts | 283° |
| 2026-05-06 13:06 | 42.86593 | -78.43220 | 28422 ft | 416 kts | 284° |
| 2026-05-06 13:06 | 42.87664 | -78.46829 | 27267 ft | 418 kts | 284° |
| 2026-05-06 13:07 | 42.88754 | -78.50509 | 26073 ft | 419 kts | 284° |
| 2026-05-06 13:07 | 42.89845 | -78.54206 | 24860 ft | 421 kts | 285° |
| 2026-05-06 13:07 | 42.90939 | -78.57922 | 23639 ft | 423 kts | 285° |
| 2026-05-06 13:07 | 42.92027 | -78.61625 | 22703 ft | 417 kts | 286° |
| 2026-05-06 13:08 | 42.93212 | -78.65222 | 21804 ft | 416 kts | 292° |
| 2026-05-06 13:08 | 42.94713 | -78.68594 | 20943 ft | 414 kts | 296° |
| 2026-05-06 13:08 | 42.96227 | -78.71900 | 20095 ft | 409 kts | 296° |
| 2026-05-06 13:08 | 42.97732 | -78.75187 | 19284 ft | 405 kts | 296° |
| 2026-05-06 13:09 | 42.99218 | -78.78440 | 18478 ft | 402 kts | 296° |
| 2026-05-06 13:09 | 43.00691 | -78.81670 | 17646 ft | 399 kts | 296° |
| 2026-05-06 13:09 | 43.02154 | -78.84884 | 16798 ft | 397 kts | 296° |
| 2026-05-06 13:09 | 43.03602 | -78.88079 | 15995 ft | 394 kts | 296° |
| 2026-05-06 13:10 | 43.05040 | -78.91257 | 15222 ft | 392 kts | 296° |
| 2026-05-06 13:10 | 43.06470 | -78.94424 | 14477 ft | 390 kts | 297° |
| 2026-05-06 13:10 | 43.07890 | -78.97572 | 13750 ft | 388 kts | 297° |
| 2026-05-06 13:10 | 43.09302 | -79.00710 | 12965 ft | 386 kts | 297° |
| 2026-05-06 13:11 | 43.10685 | -79.03774 | 12258 ft | 382 kts | 297° |
| 2026-05-06 13:11 | 43.12077 | -79.06850 | 11573 ft | 378 kts | 297° |
| 2026-05-06 13:11 | 43.13449 | -79.09885 | 10877 ft | 373 kts | 297° |
| 2026-05-06 13:11 | 43.14810 | -79.12912 | 10259 ft | 371 kts | 297° |
| 2026-05-06 13:12 | 43.16157 | -79.15917 | 10033 ft | 367 kts | 297° |
| 2026-05-06 13:12 | 43.17457 | -79.18805 | 9985 ft | 344 kts | 297° |
| 2026-05-06 13:12 | 43.18678 | -79.21508 | 9998 ft | 322 kts | 297° |
| 2026-05-06 13:12 | 43.19819 | -79.24036 | 9998 ft | 303 kts | 297° |
| 2026-05-06 13:13 | 43.20899 | -79.26414 | 9999 ft | 286 kts | 298° |
| 2026-05-06 13:13 | 43.22087 | -79.28534 | 9996 ft | 278 kts | 306° |
| 2026-05-06 13:13 | 43.23474 | -79.30391 | 10000 ft | 280 kts | 314° |
| 2026-05-06 13:13 | 43.25063 | -79.31975 | 9998 ft | 285 kts | 322° |
| 2026-05-06 13:14 | 43.26829 | -79.33244 | 9997 ft | 288 kts | 328° |
| 2026-05-06 13:14 | 43.28646 | -79.34414 | 10002 ft | 288 kts | 328° |
| 2026-05-06 13:14 | 43.30484 | -79.35542 | 9997 ft | 291 kts | 334° |
| 2026-05-06 13:14 | 43.32425 | -79.36388 | 10002 ft | 293 kts | 336° |
| 2026-05-06 13:15 | 43.34374 | -79.37216 | 9970 ft | 292 kts | 336° |
| 2026-05-06 13:15 | 43.36310 | -79.38039 | 9702 ft | 291 kts | 336° |
| 2026-05-06 13:15 | 43.38222 | -79.38855 | 9471 ft | 290 kts | 336° |
| 2026-05-06 13:15 | 43.40140 | -79.39675 | 9254 ft | 288 kts | 337° |
| 2026-05-06 13:16 | 43.42047 | -79.40492 | 8993 ft | 285 kts | 337° |
| 2026-05-06 13:16 | 43.43930 | -79.41299 | 8639 ft | 283 kts | 338° |
| 2026-05-06 13:16 | 43.45801 | -79.42100 | 8264 ft | 280 kts | 338° |
| 2026-05-06 13:16 | 43.47650 | -79.42893 | 8013 ft | 276 kts | 339° |
| 2026-05-06 13:17 | 43.49481 | -79.43681 | 8012 ft | 276 kts | 338° |
| 2026-05-06 13:17 | 43.51311 | -79.44493 | 8014 ft | 275 kts | 334° |
| 2026-05-06 13:17 | 43.52973 | -79.45740 | 8013 ft | 270 kts | 319° |
| 2026-05-06 13:17 | 43.54359 | -79.47454 | 8026 ft | 267 kts | 313° |
| 2026-05-06 13:18 | 43.55699 | -79.49223 | 8016 ft | 267 kts | 313° |
| 2026-05-06 13:18 | 43.57053 | -79.50989 | 8009 ft | 268 kts | 313° |
| 2026-05-06 13:18 | 43.58258 | -79.52902 | 8013 ft | 263 kts | 293° |
| 2026-05-06 13:18 | 43.58556 | -79.55319 | 8006 ft | 258 kts | 259° |
| 2026-05-06 13:19 | 43.57804 | -79.57531 | 7963 ft | 259 kts | 235° |
| 2026-05-06 13:19 | 43.56628 | -79.59422 | 7560 ft | 261 kts | 228° |
| 2026-05-06 13:19 | 43.55336 | -79.61189 | 7134 ft | 262 kts | 226° |
| 2026-05-06 13:19 | 43.54020 | -79.62928 | 6997 ft | 264 kts | 226° |
| 2026-05-06 13:20 | 43.52698 | -79.64701 | 7013 ft | 266 kts | 227° |
| 2026-05-06 13:20 | 43.51383 | -79.66507 | 6997 ft | 266 kts | 227° |
| 2026-05-06 13:20 | 43.50094 | -79.68314 | 6650 ft | 264 kts | 228° |
| 2026-05-06 13:20 | 43.48840 | -79.70100 | 6501 ft | 252 kts | 229° |
| 2026-05-06 13:21 | 43.47657 | -79.71801 | 6375 ft | 240 kts | 229° |
| 2026-05-06 13:21 | 43.46531 | -79.73428 | 6251 ft | 229 kts | 229° |
| 2026-05-06 13:21 | 43.45435 | -79.75011 | 5905 ft | 228 kts | 229° |
| 2026-05-06 13:21 | 43.44359 | -79.76566 | 5554 ft | 227 kts | 229° |
| 2026-05-06 13:22 | 43.43262 | -79.78154 | 5218 ft | 225 kts | 230° |
| 2026-05-06 13:22 | 43.42479 | -79.79945 | 4896 ft | 221 kts | 255° |
| 2026-05-06 13:22 | 43.42372 | -79.82005 | 4610 ft | 217 kts | 281° |
| 2026-05-06 13:22 | 43.42964 | -79.83886 | 4269 ft | 217 kts | 307° |
| 2026-05-06 13:23 | 43.44138 | -79.85190 | 3910 ft | 220 kts | 334° |
| 2026-05-06 13:23 | 43.45642 | -79.85594 | 3637 ft | 221 kts | 360° |
| 2026-05-06 13:23 | 43.47197 | -79.85542 | 3608 ft | 226 kts | 359° |
| 2026-05-06 13:23 | 43.48767 | -79.85491 | 3380 ft | 226 kts | 3° |
| 2026-05-06 13:24 | 43.50262 | -79.84893 | 3152 ft | 225 kts | 29° |
| 2026-05-06 13:24 | 43.51474 | -79.83513 | 3112 ft | 228 kts | 46° |
| 2026-05-06 13:24 | 43.52573 | -79.81919 | 3117 ft | 230 kts | 46° |
| 2026-05-06 13:24 | 43.53305 | -79.80863 | 3116 ft | 230 kts | 46° |
| 2026-05-06 13:25 | 43.54774 | -79.78747 | 3116 ft | 221 kts | 46° |
| 2026-05-06 13:25 | 43.55459 | -79.77758 | 3106 ft | 211 kts | 46° |
| 2026-05-06 13:25 | 43.56434 | -79.76350 | 3102 ft | 196 kts | 45° |
| 2026-05-06 13:25 | 43.57665 | -79.74571 | 2973 ft | 189 kts | 46° |
| 2026-05-06 13:26 | 43.58261 | -79.73710 | 2832 ft | 186 kts | 46° |
| 2026-05-06 13:26 | 43.59142 | -79.72436 | 2596 ft | 182 kts | 47° |
| 2026-05-06 13:26 | 43.60021 | -79.71163 | 2380 ft | 184 kts | 47° |
| 2026-05-06 13:26 | 43.60880 | -79.69921 | 2120 ft | 173 kts | 48° |
| 2026-05-06 13:27 | 43.61681 | -79.68761 | 1856 ft | 159 kts | 48° |
| 2026-05-06 13:27 | 43.62414 | -79.67700 | 1651 ft | 147 kts | 49° |
| 2026-05-06 13:27 | 43.63105 | -79.66699 | 1446 ft | 142 kts | 49° |
| 2026-05-06 13:27 | 43.63776 | -79.65725 | 1241 ft | 139 kts | 48° |
| 2026-05-06 13:28 | 43.64435 | -79.64769 | 1053 ft | 137 kts | 47° |
| 2026-05-06 13:28 | 43.65077 | -79.63805 | 867 ft | 135 kts | 49° |
| 2026-05-06 13:28 | 43.65738 | -79.62883 | 681 ft | 135 kts | 48° |
| 2026-05-06 13:28 | 43.66372 | -79.61958 | 569 ft | 128 kts | 49° |
| 2026-05-06 13:29 | 43.66743 | -79.61415 | 570 ft | 41 kts | 45° |
| 2026-05-06 13:29 | 43.66923 | -79.61157 | 571 ft | 34 kts | 46° |
| 2026-05-06 13:29 | 43.67120 | -79.61053 | 568 ft | 28 kts | 2° |
| 2026-05-06 13:29 | 43.67157 | -79.61054 | 570 ft | 0 kts | 357° |
| 2026-05-06 13:30 | 43.67162 | -79.61054 | 570 ft | 4 kts | 357° |
| 2026-05-06 13:30 | 43.67228 | -79.61038 | 566 ft | 15 kts | 34° |
| 2026-05-06 13:31 | 43.67311 | -79.60916 | 564 ft | 20 kts | 46° |
| 2026-05-06 13:31 | 43.67398 | -79.60807 | 568 ft | 13 kts | 18° |
| 2026-05-06 13:31 | 43.67466 | -79.60850 | 566 ft | 10 kts | 316° |
| 2026-05-06 13:31 | 43.67505 | -79.60902 | 563 ft | 6 kts | 316° |
| 2026-05-06 13:32 | 43.67522 | -79.60953 | 567 ft | 8 kts | 270° |
| 2026-05-06 13:32 | 43.67504 | -79.61044 | 561 ft | 12 kts | 276° |
| 2026-05-06 13:32 | 43.67526 | -79.61072 | 561 ft | 0 kts | 346° |
| 2026-05-06 13:33 | 43.67528 | -79.61073 | 561 ft | 3 kts | 344° |
| 2026-05-06 13:33 | 43.67569 | -79.61089 | 566 ft | 3 kts | 345° |
| 2026-05-06 13:33 | 43.67574 | -79.61091 | 567 ft | 0 kts | 346° |
| 2026-05-06 13:34 | 43.67584 | -79.61094 | 571 ft | 0 kts | 346° |
| 2026-05-06 13:34 | 43.67592 | -79.61096 | 567 ft | 0 kts | 347° |
| 2026-05-06 13:34 | 43.67591 | -79.61096 | 567 ft | 0 kts | 347° |